Aérodrome :
LOGIN :

S'inscrire | Disclaimer

   EN    FR    IT 

 










Légende :    VFR   VFR Marginal   IFR   IFR Intensif   IFR Très Intensif
Visi : 
Plafond : 
>= 8 km
>= 3000ft
5 à 8 km
1000 à 3000 ft
1500m à 5 km
500 à 1000 ft
800 à 1500m
200 à 500 ft
< 800m
< 200 ft
Symboles :   Orages  Brouillard  Fortes neiges  Fortes précipitations  Vent > 20 kt
SIGMETs :   Divers  Orages  Givrage  Turbulence  Onde Orograph.  Cendres Volcan.







- Altitude de l'aérodrome : 45 ft
- Code IATA : CEG
- Voir les cartes d'approche


EGNR - Hawarden Chester

DERNIER METAR :
  • 211250Z 32008KT 9999 SCT010 BKN023 18/15 Q1016

METARs EXPIRÉS :
  • 211220Z 33010KT 9999 SCT010 BKN025 17/15 Q1016
  • 211150Z 32009KT 9999 SCT010 BKN025 18/15 Q1016
  • 211120Z 33008KT 9999 SCT010 BKN028 18/15 Q1016
  • 211050Z 36004KT 330V030 9999 FEW007 BKN028 19/14 Q1015
  • 211020Z VRB02KT 9999 FEW007 SCT020 BKN028 19/14 Q1015

TAF TAF EGNR
Valide du 21 à 12h jusqu'au 21 à 18h UTC


211059Z 2112/2118 32005KT 9999 SCT025
PROB30
TEMPO 2112/2115 BKN012
Pas de NOTAMs connus pour ce terrain.



MET'MAP, la Météo Aéronautique d'un coup d'oeil ! - Copyright ORBIFLY Décembre 2007 - Disclaimer

ORBIFLY MET'MAP TEAM :

Programmation & Développement : Alexandra Zaïnal
Conception & Développement : Baudouin d'Aumeries
Co-Programmation & Développement : Marc-Olivier Méhu
Soutien technique & logistique : Manuel Goepfert

Contact : metmap@orbifly.com




SOURCES & CREDITS :

   NOAA